Time;durP1;ratioP1;P1;durP2;ratioP2;P2;SDS_P1;SDS_P2;PMS_P1;PMS_P2;Temp;Humidity;BMP_temperature;BMP_pressure;BME280_temperature;BME280_humidity;BME280_pressure;Samples;Min_cycle;Max_cycle;Signal;HPM_P1;HPM_P2
2020/12/04 00:00:15;;;;;;;3.53;3.20;;;5.50;99.90;;;;;;5071072;28;20025;-69
2020/12/04 00:02:40;;;;;;;3.47;3.03;;;5.50;99.90;;;;;;5066653;28;20487;-69
2020/12/04 00:05:07;;;;;;;4.47;4.00;;;5.60;99.90;;;;;;5073532;28;20017;-68
2020/12/04 00:07:33;;;;;;;6.90;4.10;;;5.50;99.90;;;;;;5073572;28;20033;-69
2020/12/04 00:09:59;;;;;;;4.00;3.55;;;5.50;99.90;;;;;;5073267;28;20384;-69
2020/12/04 00:12:24;;;;;;;4.15;3.78;;;5.50;99.90;;;;;;5072625;28;20040;-69
2020/12/04 00:14:50;;;;;;;3.90;3.50;;;5.50;99.90;;;;;;5073752;28;20029;-68
2020/12/04 00:17:16;;;;;;;4.80;4.00;;;5.50;99.90;;;;;;5072638;28;20074;-69
2020/12/04 00:19:41;;;;;;;4.28;3.33;;;5.60;99.90;;;;;;5073354;28;20028;-69
2020/12/04 00:22:07;;;;;;;3.63;3.33;;;5.50;99.90;;;;;;5072833;28;20056;-68
2020/12/04 00:24:32;;;;;;;5.40;3.65;;;5.50;99.90;;;;;;5073068;28;20032;-68
2020/12/04 00:26:59;;;;;;;4.05;3.65;;;5.50;99.90;;;;;;5073005;28;20479;-69
2020/12/04 00:29:26;;;;;;;3.80;3.47;;;5.50;99.90;;;;;;5072614;28;20053;-69
2020/12/04 00:31:52;;;;;;;3.13;2.92;;;5.40;99.90;;;;;;5072991;28;20028;-68
2020/12/04 00:34:18;;;;;;;4.18;3.70;;;5.50;99.90;;;;;;5072730;28;20028;-69
2020/12/04 00:36:48;;;;;;;3.58;3.28;;;5.50;99.90;;;;;;5072799;28;20055;-68
2020/12/04 00:39:14;;;;;;;3.50;3.20;;;5.50;99.90;;;;;;5072440;28;20105;-68
2020/12/04 00:41:40;;;;;;;2.92;2.60;;;5.50;99.90;;;;;;5073014;28;20754;-69
2020/12/04 00:44:06;;;;;;;2.95;2.75;;;5.50;99.90;;;;;;5072789;28;20032;-69
2020/12/04 00:46:31;;;;;;;3.50;3.20;;;5.50;99.90;;;;;;5072497;28;20020;-69
2020/12/04 00:48:57;;;;;;;3.25;2.70;;;5.40;99.90;;;;;;5072685;28;20021;-68
2020/12/04 00:51:22;;;;;;;3.00;2.70;;;5.40;99.90;;;;;;5071942;28;20028;-68
2020/12/04 00:53:50;;;;;;;2.75;2.55;;;5.40;99.90;;;;;;5072369;28;20032;-69
2020/12/04 00:56:16;;;;;;;3.10;2.80;;;5.40;99.90;;;;;;5072096;28;20021;-68
2020/12/04 00:58:44;;;;;;;2.97;2.70;;;5.50;99.90;;;;;;5072054;28;20036;-68
2020/12/04 01:01:10;;;;;;;3.38;2.78;;;5.40;99.90;;;;;;5072577;28;20111;-69
2020/12/04 01:03:35;;;;;;;3.40;2.40;;;5.40;99.90;;;;;;5072199;28;20064;-68
2020/12/04 01:06:01;;;;;;;3.45;2.70;;;5.50;99.90;;;;;;5072040;28;20063;-68
2020/12/04 01:08:26;;;;;;;3.42;3.13;;;5.40;99.90;;;;;;5072265;28;20024;-68
2020/12/04 01:10:52;;;;;;;3.97;2.88;;;5.40;99.90;;;;;;5072086;28;20028;-68
2020/12/04 01:13:17;;;;;;;2.90;2.70;;;5.40;99.90;;;;;;5071495;28;20049;-68
2020/12/04 01:15:43;;;;;;;3.28;2.80;;;5.40;99.90;;;;;;5072084;28;20104;-68
2020/12/04 01:18:08;;;;;;;2.67;2.47;;;5.50;99.90;;;;;;5072726;28;20063;-69
2020/12/04 01:20:34;;;;;;;3.00;2.70;;;5.40;99.90;;;;;;5071467;28;20066;-68
2020/12/04 01:23:00;;;;;;;3.20;2.90;;;5.40;99.90;;;;;;5072120;28;20085;-68
2020/12/04 01:25:25;;;;;;;3.08;2.83;;;5.50;99.90;;;;;;5071780;28;20160;-68
2020/12/04 01:27:51;;;;;;;3.10;2.80;;;5.50;99.90;;;;;;5071920;28;20063;-68
2020/12/04 01:30:16;;;;;;;3.47;3.17;;;5.50;99.90;;;;;;5071622;28;20419;-68
2020/12/04 01:32:42;;;;;;;4.13;2.65;;;5.50;99.90;;;;;;5071369;28;20069;-68
2020/12/04 01:35:07;;;;;;;3.30;2.53;;;5.50;99.90;;;;;;5071199;28;20472;-68
2020/12/04 01:37:33;;;;;;;2.40;2.15;;;5.50;99.90;;;;;;5071644;28;20025;-68
2020/12/04 01:39:58;;;;;;;3.08;2.78;;;5.50;99.90;;;;;;5071510;28;20017;-68
2020/12/04 01:42:24;;;;;;;3.42;2.95;;;5.50;99.90;;;;;;5071525;28;20379;-67
2020/12/04 01:44:50;;;;;;;3.53;2.53;;;5.50;99.90;;;;;;5072125;28;20027;-67
2020/12/04 01:47:17;;;;;;;3.55;2.58;;;5.50;99.90;;;;;;5071176;28;20445;-68
2020/12/04 01:49:44;;;;;;;4.80;2.40;;;5.50;99.90;;;;;;5071354;28;20028;-67
2020/12/04 01:52:09;;;;;;;3.20;2.28;;;5.50;99.90;;;;;;5071557;28;20025;-68
2020/12/04 01:54:36;;;;;;;2.90;2.67;;;5.50;99.90;;;;;;5070752;28;20070;-68
2020/12/04 01:57:02;;;;;;;2.65;2.38;;;5.50;99.90;;;;;;5071372;28;20402;-68
2020/12/04 01:59:27;;;;;;;2.95;2.65;;;5.50;99.90;;;;;;5071326;28;20067;-68
2020/12/04 02:02:06;;;;;;;3.78;2.75;;;5.50;99.90;;;;;;5071068;28;20020;-67
2020/12/04 02:04:31;;;;;;;3.03;2.67;;;5.50;99.90;;;;;;5071283;28;20028;-69
2020/12/04 02:07:13;;;;;;;2.65;2.45;;;5.50;99.90;;;;;;5071267;28;20345;-69
2020/12/04 02:09:44;;;;;;;2.97;2.45;;;5.50;99.90;;;;;;5071121;28;20044;-69
2020/12/04 02:12:16;;;;;;;2.30;2.10;;;5.50;99.90;;;;;;5070776;28;20048;-69
2020/12/04 02:14:48;;;;;;;2.63;2.42;;;5.50;99.90;;;;;;5071138;28;20082;-68
2020/12/04 02:17:14;;;;;;;3.08;2.70;;;5.50;99.90;;;;;;5070747;28;20452;-68
2020/12/04 02:19:41;;;;;;;2.72;2.50;;;5.50;99.90;;;;;;5071588;28;20029;-68
2020/12/04 02:22:07;;;;;;;5.30;2.53;;;5.40;99.90;;;;;;5071168;28;20025;-68
2020/12/04 02:24:33;;;;;;;2.95;2.33;;;5.40;99.90;;;;;;5071184;28;20030;-68
2020/12/04 02:26:59;;;;;;;2.55;2.35;;;5.40;99.90;;;;;;5072120;28;20025;-68
2020/12/04 02:29:25;;;;;;;3.13;2.25;;;5.40;99.90;;;;;;5071264;28;20024;-68
2020/12/04 02:31:51;;;;;;;2.25;2.03;;;5.40;99.90;;;;;;5071412;28;20025;-69
2020/12/04 02:34:17;;;;;;;2.22;1.92;;;5.40;99.90;;;;;;5070328;28;20098;-68
2020/12/04 02:36:43;;;;;;;3.28;2.05;;;5.40;99.90;;;;;;5070719;28;20029;-68
2020/12/04 02:39:08;;;;;;;2.20;2.00;;;5.40;99.90;;;;;;5070860;28;20032;-68
2020/12/04 02:41:34;;;;;;;2.25;1.85;;;5.50;99.90;;;;;;5070621;28;20040;-68
2020/12/04 02:44:03;;;;;;;1.85;1.70;;;5.50;99.90;;;;;;5070565;28;20086;-68
2020/12/04 02:46:29;;;;;;;1.73;1.63;;;5.50;99.90;;;;;;5070025;28;20106;-68
2020/12/04 02:48:54;;;;;;;3.95;1.90;;;5.50;99.90;;;;;;5070283;28;20074;-68
2020/12/04 02:51:20;;;;;;;2.55;2.20;;;5.50;99.90;;;;;;5069919;28;20025;-68
2020/12/04 02:53:45;;;;;;;2.33;2.13;;;5.50;99.90;;;;;;5070722;28;20036;-68
2020/12/04 02:56:16;;;;;;;2.92;2.40;;;5.50;99.90;;;;;;5070564;28;20456;-68
2020/12/04 02:58:42;;;;;;;2.47;1.85;;;5.50;99.90;;;;;;5070381;28;20024;-68
2020/12/04 03:01:07;;;;;;;2.17;1.98;;;5.60;99.90;;;;;;5070481;28;20361;-68
2020/12/04 03:03:33;;;;;;;2.72;2.00;;;5.50;99.90;;;;;;5070384;28;20036;-68
2020/12/04 03:05:58;;;;;;;2.10;1.80;;;5.50;99.90;;;;;;5070284;28;20027;-68
2020/12/04 03:08:25;;;;;;;2.75;2.17;;;5.50;99.90;;;;;;5070752;28;20025;-68
2020/12/04 03:10:51;;;;;;;1.65;1.52;;;5.50;99.90;;;;;;5070444;28;20130;-68
2020/12/04 03:13:17;;;;;;;2.45;1.60;;;5.60;99.90;;;;;;5070014;28;20078;-68
2020/12/04 03:15:42;;;;;;;1.52;1.42;;;5.60;99.90;;;;;;5070582;28;20101;-68
2020/12/04 03:18:08;;;;;;;1.75;1.48;;;5.60;99.90;;;;;;5070092;28;20507;-68
2020/12/04 03:20:34;;;;;;;2.25;1.65;;;5.60;99.90;;;;;;5069804;28;20483;-68
2020/12/04 03:22:59;;;;;;;2.03;1.85;;;5.60;99.90;;;;;;5070479;28;20116;-68
2020/12/04 03:25:25;;;;;;;1.65;1.52;;;5.60;99.90;;;;;;5069787;28;20048;-68
2020/12/04 03:27:50;;;;;;;1.50;1.40;;;5.50;99.90;;;;;;5070302;28;20435;-68
2020/12/04 03:30:16;;;;;;;1.40;1.30;;;5.60;99.90;;;;;;5070145;28;20464;-68
2020/12/04 03:32:41;;;;;;;1.55;1.45;;;5.60;99.90;;;;;;5069931;28;20021;-68
2020/12/04 03:35:07;;;;;;;2.42;1.48;;;5.60;99.90;;;;;;5070193;28;20020;-68
2020/12/04 03:37:32;;;;;;;1.50;1.40;;;5.60;99.90;;;;;;5069976;28;20034;-68
2020/12/04 03:39:58;;;;;;;1.50;1.40;;;5.60;99.90;;;;;;5069969;28;20109;-68
2020/12/04 03:42:23;;;;;;;1.25;1.15;;;5.60;99.90;;;;;;5069895;28;20021;-68
2020/12/04 03:44:49;;;;;;;1.20;1.10;;;5.60;99.90;;;;;;5070324;28;20028;-68
2020/12/04 03:47:14;;;;;;;1.35;1.25;;;5.60;99.90;;;;;;5069899;28;20012;-68
2020/12/04 03:49:40;;;;;;;2.55;2.03;;;5.60;99.90;;;;;;5070172;28;20040;-68
2020/12/04 03:52:05;;;;;;;1.25;1.15;;;5.70;99.90;;;;;;5070495;28;20043;-68
2020/12/04 03:54:31;;;;;;;1.50;1.40;;;5.70;99.90;;;;;;5069484;28;20112;-68
2020/12/04 03:56:57;;;;;;;1.17;1.10;;;5.70;99.90;;;;;;5070121;28;20067;-68
2020/12/04 03:59:22;;;;;;;1.98;0.98;;;5.70;99.90;;;;;;5070897;28;20353;-68
2020/12/04 04:01:48;;;;;;;1.77;1.45;;;5.70;99.90;;;;;;5072941;28;20032;-68
2020/12/04 04:04:13;;;;;;;2.22;1.27;;;5.70;99.90;;;;;;5073215;28;20017;-68
2020/12/04 04:06:39;;;;;;;1.23;1.13;;;5.70;99.90;;;;;;5073739;28;20031;-69
2020/12/04 04:09:04;;;;;;;1.77;1.23;;;5.70;99.90;;;;;;5073187;28;20532;-68
2020/12/04 04:11:30;;;;;;;1.38;1.27;;;5.70;99.90;;;;;;5072922;28;20052;-68
2020/12/04 04:13:55;;;;;;;1.20;1.10;;;5.80;99.90;;;;;;5073378;28;20088;-68
2020/12/04 04:16:21;;;;;;;1.13;1.00;;;5.80;99.90;;;;;;5072231;28;20024;-68
2020/12/04 04:18:46;;;;;;;1.23;1.10;;;5.80;99.90;;;;;;5073738;28;20021;-68
2020/12/04 04:21:12;;;;;;;1.40;1.30;;;5.90;99.90;;;;;;5073039;28;20392;-68
2020/12/04 04:23:38;;;;;;;1.17;0.90;;;5.90;99.90;;;;;;5073213;28;20024;-68
2020/12/04 04:26:04;;;;;;;0.95;0.90;;;5.90;99.90;;;;;;5073965;28;20737;-69
2020/12/04 04:28:30;;;;;;;0.98;0.98;;;5.90;99.90;;;;;;5073309;28;20025;-68
2020/12/04 04:30:55;;;;;;;1.02;0.90;;;5.90;99.90;;;;;;5073076;28;20025;-69
2020/12/04 04:33:22;;;;;;;0.80;0.80;;;5.90;99.90;;;;;;5072698;28;20556;-70
2020/12/04 04:35:47;;;;;;;0.77;0.73;;;5.90;99.90;;;;;;5072994;28;20013;-68
2020/12/04 04:38:13;;;;;;;1.20;0.85;;;5.90;99.90;;;;;;5072849;28;20089;-68
2020/12/04 04:40:39;;;;;;;0.90;0.88;;;5.90;99.90;;;;;;5073238;28;20016;-68
2020/12/04 04:43:10;;;;;;;0.90;0.90;;;6.00;99.90;;;;;;5072774;28;20048;-68
2020/12/04 04:45:38;;;;;;;1.90;0.90;;;5.90;99.90;;;;;;5072863;28;20105;-68
2020/12/04 04:48:15;;;;;;;1.00;0.90;;;5.90;99.90;;;;;;5073438;28;20028;-67
2020/12/04 04:50:44;;;;;;;2.80;0.90;;;5.90;99.90;;;;;;5072430;28;20738;-68
2020/12/04 04:53:11;;;;;;;1.25;1.00;;;5.90;99.90;;;;;;5072900;28;20037;-67
2020/12/04 04:55:40;;;;;;;1.30;1.13;;;5.90;99.90;;;;;;5072732;28;20043;-69
2020/12/04 04:58:06;;;;;;;1.02;0.85;;;6.00;99.90;;;;;;5073125;28;20028;-69
2020/12/04 05:00:32;;;;;;;1.10;0.80;;;5.90;99.90;;;;;;5072643;28;20021;-69
2020/12/04 05:02:58;;;;;;;0.90;0.90;;;6.00;99.90;;;;;;5072738;28;20020;-69
2020/12/04 05:05:43;;;;;;;1.13;1.00;;;6.00;99.90;;;;;;5071980;28;20031;-67
2020/12/04 05:08:10;;;;;;;1.02;0.75;;;5.90;99.90;;;;;;5072776;28;20047;-69
2020/12/04 05:10:36;;;;;;;1.63;0.90;;;5.90;99.90;;;;;;5071041;28;20052;-69
2020/12/04 05:13:02;;;;;;;1.25;0.80;;;5.90;99.90;;;;;;5072339;28;20083;-69
2020/12/04 05:15:29;;;;;;;1.00;0.80;;;5.90;99.90;;;;;;5072637;28;20032;-69
2020/12/04 05:18:08;;;;;;;0.88;0.77;;;5.90;99.90;;;;;;5072082;28;20032;-69
2020/12/04 05:20:35;;;;;;;1.02;0.80;;;5.90;99.90;;;;;;5072328;28;20063;-67
2020/12/04 05:23:01;;;;;;;1.35;0.80;;;5.90;99.90;;;;;;5072356;28;20036;-67
2020/12/04 05:25:37;;;;;;;0.80;0.73;;;5.90;99.90;;;;;;5071997;28;20028;-69
2020/12/04 05:28:11;;;;;;;1.38;1.00;;;5.90;99.90;;;;;;5072339;28;20029;-68
2020/12/04 05:30:37;;;;;;;1.30;0.88;;;5.90;99.90;;;;;;5072228;28;20054;-68
2020/12/04 05:33:05;;;;;;;1.58;1.00;;;5.90;99.90;;;;;;5070462;28;20037;-67
2020/12/04 05:35:32;;;;;;;0.88;0.73;;;5.90;99.90;;;;;;5071951;28;20024;-68
2020/12/04 05:38:06;;;;;;;0.70;0.70;;;5.90;99.90;;;;;;5072436;28;20103;-68
2020/12/04 05:40:36;;;;;;;0.77;0.77;;;5.90;99.90;;;;;;5071059;28;20476;-68
2020/12/04 05:43:03;;;;;;;0.80;0.80;;;6.00;99.90;;;;;;5071941;28;20039;-68
2020/12/04 05:45:30;;;;;;;1.45;0.88;;;6.00;99.90;;;;;;5071514;28;20024;-68
2020/12/04 05:47:56;;;;;;;0.60;0.60;;;6.00;99.90;;;;;;5071101;28;20031;-68
2020/12/04 05:50:22;;;;;;;0.80;0.80;;;6.00;99.90;;;;;;5071467;28;20486;-68
2020/12/04 05:52:48;;;;;;;1.20;1.10;;;6.00;99.90;;;;;;5071402;28;20120;-69
2020/12/04 05:55:15;;;;;;;0.90;0.90;;;6.00;99.90;;;;;;5070940;28;20102;-70
2020/12/04 05:57:53;;;;;;;1.67;0.90;;;6.00;99.90;;;;;;5071763;28;20025;-69
2020/12/04 06:00:20;;;;;;;0.80;0.80;;;6.10;99.90;;;;;;5070665;28;20020;-69
2020/12/04 06:02:54;;;;;;;0.85;0.80;;;6.00;99.90;;;;;;5071487;28;20077;-69
2020/12/04 06:05:23;;;;;;;1.15;1.05;;;6.00;99.90;;;;;;5071218;28;20028;-69
2020/12/04 06:07:48;;;;;;;1.17;0.90;;;6.00;99.90;;;;;;5070715;28;20055;-69
2020/12/04 06:10:14;;;;;;;1.48;1.38;;;6.00;99.90;;;;;;5070983;28;20075;-68
2020/12/04 06:12:39;;;;;;;2.72;1.33;;;5.90;99.90;;;;;;5070927;28;20139;-67
2020/12/04 06:15:26;;;;;;;1.55;1.20;;;6.00;99.90;;;;;;5070756;28;20028;-68
2020/12/04 06:18:00;;;;;;;5.85;1.10;;;6.00;99.90;;;;;;5071000;28;20044;-69
2020/12/04 06:20:26;;;;;;;0.90;0.90;;;5.90;99.90;;;;;;5070930;28;20472;-68
2020/12/04 06:23:07;;;;;;;2.83;0.95;;;5.90;99.90;;;;;;5070068;28;20085;-69
2020/12/04 06:25:51;;;;;;;1.75;1.35;;;6.00;99.90;;;;;;5080453;28;20413;-69
2020/12/04 06:28:18;;;;;;;1.83;1.08;;;6.00;99.90;;;;;;5086491;28;20452;-68
2020/12/04 06:31:02;;;;;;;1.13;1.00;;;6.00;99.90;;;;;;5089523;28;20038;-68
2020/12/04 06:33:32;;;;;;;0.98;0.98;;;6.10;99.90;;;;;;5088318;28;20036;-69
2020/12/04 06:35:58;;;;;;;0.98;0.82;;;6.10;99.90;;;;;;5086286;28;20024;-69
2020/12/04 06:38:32;;;;;;;2.72;1.10;;;6.10;99.90;;;;;;5087485;28;20484;-69
2020/12/04 06:41:20;;;;;;;1.30;0.98;;;6.10;99.90;;;;;;5089330;28;20413;-69
2020/12/04 06:43:48;;;;;;;1.25;0.70;;;6.10;99.90;;;;;;5086225;28;20059;-69
2020/12/04 06:46:35;;;;;;;3.60;0.50;;;6.20;99.90;;;;;;5087471;28;20051;-68
2020/12/04 06:52:16;;;;;;;1.17;0.40;;;6.40;99.90;;;;;;5086562;28;21294;-70
2020/12/04 06:54:49;;;;;;;1.10;0.35;;;6.50;99.90;;;;;;5078221;28;20070;-67
2020/12/04 06:57:20;;;;;;;0.70;0.38;;;6.60;99.90;;;;;;5081859;28;20142;-69
2020/12/04 06:59:46;;;;;;;0.40;0.40;;;6.60;99.90;;;;;;5089742;28;20016;-69
2020/12/04 07:02:20;;;;;;;0.20;0.20;;;6.60;99.90;;;;;;5088302;28;20024;-69
2020/12/04 07:04:52;;;;;;;1.70;0.25;;;6.70;99.90;;;;;;5089537;28;20032;-69
2020/12/04 07:07:19;;;;;;;0.65;0.30;;;6.70;99.90;;;;;;5087560;28;20341;-70
2020/12/04 07:09:53;;;;;;;0.70;0.30;;;6.80;99.90;;;;;;5085320;28;20029;-69
2020/12/04 07:12:20;;;;;;;0.40;0.35;;;6.80;99.90;;;;;;5087393;28;20531;-69
2020/12/04 07:14:56;;;;;;;3.35;1.80;;;6.90;99.90;;;;;;5087511;28;20475;-69
2020/12/04 07:17:24;;;;;;;2.63;0.45;;;6.80;99.90;;;;;;5088940;28;20138;-70
2020/12/04 07:19:52;;;;;;;0.88;0.20;;;6.80;99.90;;;;;;5088923;28;20388;-69
2020/12/04 07:22:19;;;;;;;0.30;0.30;;;6.80;99.90;;;;;;5080949;28;20020;-69
2020/12/04 07:24:46;;;;;;;0.55;0.30;;;6.80;99.90;;;;;;5087615;28;20074;-69
2020/12/04 07:27:17;;;;;;;1.05;0.50;;;6.80;99.90;;;;;;5089836;28;20545;-69
2020/12/04 07:29:43;;;;;;;;;;;6.80;99.90;;;;;;5087846;28;20024;-68
2020/12/04 07:32:09;;;;;;;1.00;0.20;;;6.90;99.90;;;;;;5086886;28;19904;-68
2020/12/04 07:34:38;;;;;;;0.95;0.40;;;6.90;99.90;;;;;;5090115;28;20064;-68
2020/12/04 07:37:09;;;;;;;0.57;0.30;;;6.80;99.90;;;;;;5087689;28;20016;-68
2020/12/04 07:39:37;;;;;;;4.63;0.40;;;6.90;99.90;;;;;;5091017;28;20033;-67
2020/12/04 07:42:04;;;;;;;1.98;0.40;;;7.00;99.90;;;;;;5088766;28;20028;-69
2020/12/04 07:44:35;;;;;;;0.55;0.40;;;6.90;99.90;;;;;;5090838;28;20502;-67
2020/12/04 07:47:11;;;;;;;1.25;0.45;;;6.90;99.90;;;;;;5085662;28;20107;-69
2020/12/04 07:49:51;;;;;;;0.60;0.40;;;7.00;99.90;;;;;;5090585;28;20060;-69
2020/12/04 07:52:22;;;;;;;3.95;0.68;;;7.00;99.90;;;;;;5090383;28;20483;-69
2020/12/04 07:55:10;;;;;;;1.88;0.50;;;7.00;99.90;;;;;;5090757;28;20379;-69
2020/12/04 07:57:42;;;;;;;0.25;0.20;;;7.00;99.90;;;;;;5090398;28;20389;-68
2020/12/04 08:00:09;;;;;;;2.58;0.50;;;7.10;99.90;;;;;;5092651;28;20020;-70
2020/12/04 08:02:35;;;;;;;2.55;0.30;;;7.10;99.90;;;;;;5091910;28;20028;-69
2020/12/04 08:05:01;;;;;;;1.52;0.43;;;7.10;99.90;;;;;;5093910;28;20020;-68
2020/12/04 08:07:31;;;;;;;0.65;0.40;;;7.10;99.90;;;;;;5093302;28;20111;-68
2020/12/04 08:09:59;;;;;;;1.25;0.38;;;7.10;99.90;;;;;;5092414;28;20027;-70
2020/12/04 08:12:33;;;;;;;0.30;0.30;;;7.00;99.90;;;;;;5090863;28;20492;-69
2020/12/04 08:15:01;;;;;;;1.38;0.40;;;7.00;99.90;;;;;;5088867;28;20034;-67
2020/12/04 08:17:28;;;;;;;1.00;0.50;;;7.00;99.90;;;;;;5091990;28;20028;-68
2020/12/04 08:19:55;;;;;;;0.93;0.30;;;6.90;99.90;;;;;;5087903;28;20145;-68
2020/12/04 08:22:31;;;;;;;0.68;0.40;;;7.00;99.90;;;;;;5083147;28;20325;-68
2020/12/04 08:25:06;;;;;;;0.32;0.32;;;7.00;99.90;;;;;;5078420;28;20027;-67
2020/12/04 08:27:43;;;;;;;2.92;0.45;;;7.10;99.90;;;;;;5073217;28;20077;-68
2020/12/04 08:30:18;;;;;;;0.50;0.40;;;7.10;99.90;;;;;;5071947;28;20031;-68
2020/12/04 08:33:09;;;;;;;0.63;0.40;;;7.20;99.90;;;;;;5073417;28;20399;-69
2020/12/04 08:35:40;;;;;;;0.40;0.40;;;7.20;99.90;;;;;;5072904;28;20031;-67
2020/12/04 08:38:17;;;;;;;1.80;0.43;;;7.30;99.90;;;;;;5083774;28;20387;-67
2020/12/04 08:40:47;;;;;;;0.50;0.50;;;7.40;99.90;;;;;;5087495;28;20016;-69
2020/12/04 08:43:15;;;;;;;0.75;0.70;;;7.40;99.90;;;;;;5085942;28;20020;-69
2020/12/04 08:45:45;;;;;;;1.25;0.60;;;7.40;99.90;;;;;;5087911;28;20487;-69
2020/12/04 08:48:13;;;;;;;2.38;0.68;;;7.30;99.90;;;;;;5085632;28;20020;-69
2020/12/04 08:50:42;;;;;;;1.75;0.70;;;7.30;99.90;;;;;;5088177;28;20070;-69
2020/12/04 08:53:09;;;;;;;1.25;0.70;;;7.40;99.90;;;;;;5081475;28;20040;-68
2020/12/04 08:55:35;;;;;;;2.58;0.60;;;7.30;99.90;;;;;;5072663;28;20025;-67
2020/12/04 08:58:01;;;;;;;0.93;0.50;;;7.30;99.90;;;;;;5073346;28;20159;-67
2020/12/04 09:00:28;;;;;;;3.03;0.50;;;7.30;99.90;;;;;;5069290;28;20020;-67
2020/12/04 09:02:54;;;;;;;0.75;0.55;;;7.30;99.90;;;;;;5072900;28;20486;-68
2020/12/04 09:05:20;;;;;;;2.28;0.55;;;7.30;99.90;;;;;;5072959;28;20357;-68
2020/12/04 09:07:45;;;;;;;4.53;0.80;;;7.30;99.90;;;;;;5073302;28;20032;-67
2020/12/04 09:10:16;;;;;;;0.77;0.40;;;7.30;99.90;;;;;;5072899;28;20027;-69
2020/12/04 09:12:43;;;;;;;1.88;0.35;;;7.30;99.90;;;;;;5073128;28;20080;-68
2020/12/04 09:15:12;;;;;;;1.17;0.57;;;7.30;99.90;;;;;;5073271;28;20017;-68
2020/12/04 09:17:38;;;;;;;2.45;0.63;;;7.30;99.90;;;;;;5072736;28;20460;-70
2020/12/04 09:20:06;;;;;;;1.38;0.40;;;7.30;99.90;;;;;;5076363;28;20081;-67
2020/12/04 09:22:32;;;;;;;1.23;0.50;;;7.20;99.90;;;;;;5092894;28;20063;-67
2020/12/04 09:24:59;;;;;;;1.45;0.60;;;7.30;99.90;;;;;;5092745;28;20024;-69
2020/12/04 09:27:25;;;;;;;0.63;0.50;;;7.20;99.90;;;;;;5092916;28;20499;-68
2020/12/04 09:29:51;;;;;;;0.55;0.32;;;7.30;99.90;;;;;;5093530;28;20032;-69
2020/12/04 09:32:17;;;;;;;3.00;0.50;;;7.30;99.90;;;;;;5092013;28;20024;-68
2020/12/04 09:34:45;;;;;;;1.45;0.75;;;7.30;99.90;;;;;;5089856;28;20069;-68
2020/12/04 09:37:26;;;;;;;2.35;0.63;;;7.30;99.90;;;;;;5088696;28;20425;-69
2020/12/04 09:39:57;;;;;;;1.40;0.70;;;7.30;99.90;;;;;;5088025;28;20479;-68
2020/12/04 09:42:24;;;;;;;0.70;0.45;;;7.40;99.90;;;;;;5072499;28;20035;-68
2020/12/04 09:44:51;;;;;;;1.40;0.80;;;7.40;99.90;;;;;;5072208;28;20032;-68
2020/12/04 09:47:18;;;;;;;2.85;0.57;;;7.40;99.90;;;;;;5071947;28;20019;-69
2020/12/04 09:49:44;;;;;;;2.50;0.93;;;7.40;99.90;;;;;;5072292;28;20036;-68
2020/12/04 09:52:11;;;;;;;0.57;0.45;;;7.40;99.90;;;;;;5074325;28;20044;-68
2020/12/04 09:54:38;;;;;;;0.85;0.50;;;7.40;99.90;;;;;;5081403;28;20043;-68
2020/12/04 09:57:06;;;;;;;1.90;0.60;;;7.40;99.90;;;;;;5082262;28;20116;-70
2020/12/04 09:59:32;;;;;;;3.55;0.60;;;7.40;99.90;;;;;;5088374;28;20110;-68
2020/12/04 10:01:58;;;;;;;7.25;0.75;;;7.40;99.90;;;;;;5088987;28;20165;-69
2020/12/04 10:04:24;;;;;;;1.08;0.70;;;7.40;99.90;;;;;;5090994;28;20107;-68
2020/12/04 10:06:51;;;;;;;0.75;0.60;;;7.40;99.90;;;;;;5090484;28;20020;-67
2020/12/04 10:09:17;;;;;;;0.50;0.50;;;7.50;99.90;;;;;;5089316;28;20035;-70
2020/12/04 10:11:43;;;;;;;4.45;1.95;;;7.10;99.90;;;;;;5083125;28;20372;-67
2020/12/04 10:14:09;;;;;;;0.63;0.60;;;7.50;99.90;;;;;;5085079;28;20547;-69
2020/12/04 10:16:34;;;;;;;1.40;0.50;;;7.50;99.90;;;;;;5089121;28;20112;-68
2020/12/04 10:19:00;;;;;;;0.60;0.60;;;7.50;99.90;;;;;;5089615;28;20020;-67
2020/12/04 10:21:26;;;;;;;1.63;0.68;;;7.50;99.90;;;;;;5087695;28;20040;-67
2020/12/04 10:23:54;;;;;;;8.50;0.70;;;7.50;99.90;;;;;;5082210;28;20024;-67
2020/12/04 10:26:20;;;;;;;1.92;0.50;;;7.60;99.90;;;;;;5080285;28;20016;-67
2020/12/04 10:28:46;;;;;;;4.00;0.60;;;7.70;99.90;;;;;;5091765;28;20027;-66
2020/12/04 10:31:11;;;;;;;1.02;0.60;;;7.80;99.90;;;;;;5092115;28;20073;-68
2020/12/04 10:33:37;;;;;;;1.02;0.50;;;7.80;99.90;;;;;;5091521;28;20119;-68
2020/12/04 10:36:03;;;;;;;1.90;0.70;;;7.80;99.90;;;;;;5077554;28;20028;-68
2020/12/04 10:38:29;;;;;;;1.25;0.60;;;7.80;99.90;;;;;;5091736;28;20055;-67
2020/12/04 10:40:55;;;;;;;1.73;0.70;;;7.90;99.90;;;;;;5091920;28;20031;-66
2020/12/04 10:43:21;;;;;;;1.00;0.90;;;7.90;99.90;;;;;;5091094;28;20024;-68
2020/12/04 10:45:47;;;;;;;1.40;0.70;;;7.90;99.90;;;;;;5081521;28;20025;-67
2020/12/04 10:48:13;;;;;;;4.30;1.05;;;7.90;99.90;;;;;;5077720;28;20019;-68
2020/12/04 10:50:38;;;;;;;1.08;0.98;;;7.90;99.90;;;;;;5091644;28;20028;-68
2020/12/04 10:53:04;;;;;;;3.38;0.90;;;7.80;99.90;;;;;;5091667;28;20043;-68
2020/12/04 10:55:29;;;;;;;3.63;0.80;;;7.80;99.90;;;;;;5078691;28;20460;-68
2020/12/04 10:57:55;;;;;;;0.95;0.65;;;7.80;99.90;;;;;;5085162;28;20024;-67
2020/12/04 11:00:20;;;;;;;0.98;0.88;;;7.80;99.90;;;;;;5091250;28;20379;-68
2020/12/04 11:02:46;;;;;;;1.15;0.75;;;7.80;99.90;;;;;;5091468;28;20036;-69
2020/12/04 11:05:39;;;;;;;3.13;0.70;;;7.80;99.90;;;;;;5072943;28;20099;-69
2020/12/04 11:08:05;;;;;;;2.72;0.70;;;7.80;99.90;;;;;;5071252;28;20028;-69
2020/12/04 11:10:31;;;;;;;0.98;0.80;;;7.90;99.90;;;;;;5074559;28;20081;-68
2020/12/04 11:12:56;;;;;;;0.77;0.60;;;7.90;99.90;;;;;;5075046;28;20040;-67
2020/12/04 11:15:22;;;;;;;1.15;0.70;;;7.90;99.90;;;;;;5075716;28;20017;-67
2020/12/04 11:17:48;;;;;;;0.85;0.73;;;7.90;99.90;;;;;;5074793;28;20021;-69
2020/12/04 11:20:15;;;;;;;0.50;0.50;;;8.00;99.90;;;;;;5075257;28;20025;-69
2020/12/04 11:22:42;;;;;;;0.60;0.55;;;8.00;99.90;;;;;;5074923;28;20028;-68
2020/12/04 11:25:08;;;;;;;0.40;0.40;;;8.00;99.90;;;;;;5074503;28;20028;-68
2020/12/04 11:27:34;;;;;;;0.80;0.68;;;8.00;99.90;;;;;;5074733;28;20079;-67
2020/12/04 11:29:59;;;;;;;0.75;0.60;;;7.90;99.90;;;;;;5086466;28;20024;-68
2020/12/04 11:32:25;;;;;;;0.50;0.50;;;7.90;99.90;;;;;;5090949;28;20024;-67
2020/12/04 11:34:50;;;;;;;0.60;0.50;;;7.90;99.90;;;;;;5079223;28;20052;-67
2020/12/04 11:37:16;;;;;;;0.80;0.70;;;7.80;99.90;;;;;;5081572;28;20131;-68
2020/12/04 11:39:42;;;;;;;2.63;0.50;;;7.90;99.90;;;;;;5081658;28;20496;-68
2020/12/04 11:42:09;;;;;;;0.73;0.57;;;7.90;99.90;;;;;;5080183;28;20373;-67
2020/12/04 11:44:35;;;;;;;2.00;0.70;;;7.90;99.90;;;;;;5074263;28;20070;-67
2020/12/04 11:47:01;;;;;;;0.52;0.50;;;8.00;99.90;;;;;;5074701;28;20047;-68
2020/12/04 11:49:27;;;;;;;0.75;0.75;;;8.00;99.90;;;;;;5074533;28;20473;-67
2020/12/04 11:51:52;;;;;;;0.63;0.63;;;8.00;99.90;;;;;;5088197;28;20052;-69
2020/12/04 11:54:18;;;;;;;0.50;0.50;;;8.10;99.90;;;;;;5074384;28;20481;-68
2020/12/04 11:56:52;;;;;;;0.50;0.50;;;8.10;99.90;;;;;;5088160;28;20012;-68
2020/12/04 11:59:18;;;;;;;1.48;0.40;;;8.00;99.90;;;;;;5073573;28;20165;-69
2020/12/04 12:01:45;;;;;;;0.70;0.70;;;8.00;99.90;;;;;;5083992;28;20020;-68
2020/12/04 12:04:14;;;;;;;1.17;0.50;;;8.00;99.90;;;;;;5093142;28;20045;-68
2020/12/04 12:06:40;;;;;;;0.52;0.43;;;8.10;99.90;;;;;;5092507;28;20032;-68
2020/12/04 12:09:06;;;;;;;0.63;0.52;;;8.20;99.90;;;;;;5079871;28;20483;-68
2020/12/04 12:11:31;;;;;;;1.70;0.70;;;8.00;99.90;;;;;;5072434;28;20021;-68
2020/12/04 12:13:57;;;;;;;0.77;0.77;;;8.00;99.90;;;;;;5072316;28;20057;-68
2020/12/04 12:16:22;;;;;;;1.00;0.82;;;8.00;99.90;;;;;;5072840;28;20104;-68
2020/12/04 12:18:48;;;;;;;0.93;0.80;;;7.90;99.90;;;;;;5074399;28;20104;-68
2020/12/04 12:21:14;;;;;;;0.98;0.77;;;7.90;99.90;;;;;;5072697;28;20051;-68
2020/12/04 12:23:39;;;;;;;3.78;1.30;;;7.90;99.90;;;;;;5074182;28;20033;-68
2020/12/04 12:26:06;;;;;;;2.25;1.23;;;7.90;99.90;;;;;;5073691;28;20074;-67
2020/12/04 12:28:32;;;;;;;0.90;0.77;;;7.90;99.90;;;;;;5073359;28;20456;-67
2020/12/04 12:30:58;;;;;;;0.70;0.70;;;7.80;99.90;;;;;;5074437;28;20036;-67
2020/12/04 12:33:24;;;;;;;0.85;0.85;;;7.90;99.90;;;;;;5073673;28;20032;-68
2020/12/04 12:35:49;;;;;;;0.95;0.93;;;7.80;99.90;;;;;;5073482;28;20362;-69
2020/12/04 12:38:15;;;;;;;1.17;0.90;;;7.80;99.90;;;;;;5073607;28;20031;-67
2020/12/04 12:40:41;;;;;;;0.57;0.57;;;7.90;99.90;;;;;;5089025;28;20106;-68
2020/12/04 12:43:06;;;;;;;3.00;0.80;;;7.90;99.90;;;;;;5091458;28;20441;-68
2020/12/04 12:45:32;;;;;;;0.60;0.60;;;7.90;99.90;;;;;;5090314;28;20447;-67
2020/12/04 12:47:57;;;;;;;0.63;0.60;;;7.90;99.90;;;;;;5088777;28;20046;-67
2020/12/04 12:50:23;;;;;;;0.80;0.60;;;7.90;99.90;;;;;;5091866;28;20041;-68
2020/12/04 12:52:49;;;;;;;2.78;0.70;;;7.90;99.90;;;;;;5076400;28;20404;-67
2020/12/04 12:55:15;;;;;;;2.03;0.85;;;7.80;99.90;;;;;;5072494;28;20040;-69
2020/12/04 12:57:40;;;;;;;1.20;0.43;;;7.80;99.90;;;;;;5073604;28;20032;-68
2020/12/04 13:00:06;;;;;;;0.63;0.55;;;7.80;99.90;;;;;;5073578;28;20034;-67
2020/12/04 13:02:31;;;;;;;0.52;0.52;;;7.80;99.90;;;;;;5072694;28;20020;-67